createdAt,value
2022-10-12T00:01:34.988Z,8.63
2022-10-12T00:04:01.489Z,8.97
2022-10-12T00:06:27.905Z,8.80
2022-10-12T00:08:54.436Z,7.90
2022-10-12T00:11:25.382Z,8.50
2022-10-12T00:13:52.625Z,8.27
2022-10-12T00:16:20.414Z,8.90
2022-10-12T00:18:50.352Z,10.27
2022-10-12T00:21:17.178Z,8.33
2022-10-12T00:23:43.832Z,8.87
2022-10-12T00:26:17.563Z,9.13
2022-10-12T00:28:44.526Z,8.80
2022-10-12T00:31:13.213Z,9.07
2022-10-12T00:33:39.751Z,7.47
2022-10-12T00:36:12.141Z,8.00
2022-10-12T00:38:38.537Z,8.43
2022-10-12T00:41:05.364Z,8.10
2022-10-12T00:43:34.575Z,8.43
2022-10-12T00:46:03.497Z,8.33
2022-10-12T00:48:29.891Z,8.73
2022-10-12T00:50:58.048Z,7.73
2022-10-12T00:53:26.285Z,8.10
2022-10-12T00:55:54.935Z,8.57
2022-10-12T00:58:21.839Z,8.37
2022-10-12T01:00:48.256Z,7.60
2022-10-12T01:03:17.468Z,8.57
2022-10-12T01:05:43.865Z,8.80
2022-10-12T01:08:10.248Z,8.10
2022-10-12T01:10:36.619Z,8.10
2022-10-12T01:13:03.542Z,7.93
2022-10-12T01:15:34.381Z,7.43
2022-10-12T01:18:15.307Z,7.17
2022-10-12T01:20:44.442Z,6.83
2022-10-12T01:23:16.914Z,7.90
2022-10-12T01:25:43.257Z,7.63
2022-10-12T01:28:12.704Z,7.50
2022-10-12T01:30:43.632Z,8.17
2022-10-12T01:33:14.381Z,8.43
2022-10-12T01:35:40.746Z,7.93
2022-10-12T01:38:13.218Z,7.50
2022-10-12T01:40:48.393Z,7.33
2022-10-12T01:43:17.079Z,7.33
2022-10-12T01:45:43.519Z,6.83
2022-10-12T01:48:09.914Z,7.10
2022-10-12T01:50:48.274Z,6.83
2022-10-12T01:53:23.680Z,7.67
2022-10-12T01:55:57.349Z,7.77
2022-10-12T01:58:29.580Z,6.60
2022-10-12T02:01:11.277Z,6.93
2022-10-12T02:03:49.794Z,6.53
2022-10-12T02:06:18.750Z,5.63
2022-10-12T02:09:03.437Z,5.87
2022-10-12T02:11:31.428Z,7.30
2022-10-12T02:14:00.938Z,6.77
2022-10-12T02:16:35.451Z,6.27
2022-10-12T02:19:03.705Z,7.10
2022-10-12T02:21:32.203Z,6.57
2022-10-12T02:24:00.296Z,5.67
2022-10-12T02:26:27.528Z,6.27
2022-10-12T02:28:54.074Z,6.47
2022-10-12T02:31:35.349Z,7.03
2022-10-12T02:34:12.770Z,6.20
2022-10-12T02:36:39.090Z,5.33
2022-10-12T02:39:23.849Z,6.23
2022-10-12T02:41:50.938Z,5.53
2022-10-12T02:44:22.646Z,5.13
2022-10-12T02:46:50.210Z,6.23
2022-10-12T02:49:17.642Z,6.20
2022-10-12T02:51:45.200Z,5.20
2022-10-12T02:54:12.426Z,6.03
2022-10-12T02:56:45.937Z,5.23
2022-10-12T02:59:13.088Z,5.03
2022-10-12T03:01:39.775Z,5.33
2022-10-12T03:04:06.245Z,5.67
2022-10-12T03:06:32.637Z,4.87
2022-10-12T03:08:59.117Z,5.40
2022-10-12T03:11:25.481Z,5.27
2022-10-12T03:13:52.746Z,4.50
2022-10-12T03:16:19.058Z,5.67
2022-10-12T03:18:45.431Z,5.10
2022-10-12T03:21:12.228Z,5.77
2022-10-12T03:23:38.698Z,5.30
2022-10-12T03:26:05.205Z,5.50
2022-10-12T03:28:31.920Z,5.17
2022-10-12T03:30:58.627Z,4.67
2022-10-12T03:33:25.026Z,5.30
2022-10-12T03:35:51.702Z,5.20
2022-10-12T03:38:18.630Z,4.33
2022-10-12T03:40:45.103Z,5.03
2022-10-12T03:43:11.555Z,4.77
2022-10-12T03:45:38.207Z,4.27
2022-10-12T03:48:05.564Z,4.50
2022-10-12T03:50:34.862Z,4.50
2022-10-12T03:53:02.165Z,5.03
2022-10-12T03:55:28.564Z,3.50
2022-10-12T03:57:54.959Z,4.37
2022-10-12T04:00:21.498Z,4.07
2022-10-12T04:02:47.923Z,3.87
2022-10-12T04:05:14.457Z,19.03
2022-10-12T04:07:41.183Z,16.60
2022-10-12T04:10:07.905Z,6.07
2022-10-12T04:12:34.402Z,4.77
2022-10-12T04:15:00.825Z,4.93
2022-10-12T04:17:27.197Z,4.37
2022-10-12T04:19:53.577Z,4.17
2022-10-12T04:22:19.912Z,4.30
2022-10-12T04:24:46.233Z,4.07
2022-10-12T04:27:12.661Z,4.30
2022-10-12T04:29:39.075Z,4.03
2022-10-12T04:32:10.123Z,3.70
2022-10-12T04:34:38.644Z,4.70
2022-10-12T04:37:04.971Z,4.17
2022-10-12T04:39:31.320Z,4.37
2022-10-12T04:41:57.694Z,4.20
2022-10-12T04:44:27.294Z,3.63
2022-10-12T04:46:56.112Z,4.60
2022-10-12T04:49:22.453Z,4.13
2022-10-12T04:51:48.866Z,4.00
2022-10-12T04:54:15.195Z,4.07
2022-10-12T04:56:46.842Z,4.13
2022-10-12T04:59:14.192Z,5.23
2022-10-12T05:01:40.628Z,4.90
2022-10-12T05:04:07.013Z,4.20
2022-10-12T05:06:33.367Z,4.07
2022-10-12T05:08:59.771Z,4.87
2022-10-12T05:11:26.120Z,4.33
2022-10-12T05:13:52.948Z,4.63
2022-10-12T05:16:19.303Z,4.93
2022-10-12T05:18:45.670Z,4.50
2022-10-12T05:21:12.006Z,4.60
2022-10-12T05:23:38.344Z,5.37
2022-10-12T05:26:04.785Z,5.03
2022-10-12T05:28:31.249Z,4.90
2022-10-12T05:30:57.683Z,4.77
2022-10-12T05:33:24.052Z,4.47
2022-10-12T05:35:56.131Z,4.90
2022-10-12T05:38:22.799Z,4.50
2022-10-12T05:40:49.150Z,5.10
2022-10-12T05:43:15.596Z,5.23
2022-10-12T05:45:42.645Z,4.90
2022-10-12T05:48:08.986Z,5.07
2022-10-12T05:50:35.325Z,4.83
2022-10-12T05:53:01.650Z,4.90
2022-10-12T05:55:28.312Z,4.70
2022-10-12T05:57:54.855Z,5.33
2022-10-12T06:00:21.725Z,4.90
2022-10-12T06:02:48.235Z,4.50
2022-10-12T06:05:14.652Z,4.43
2022-10-12T06:07:40.982Z,4.80
2022-10-12T06:10:07.634Z,4.97
2022-10-12T06:12:33.976Z,4.63
2022-10-12T06:15:00.528Z,5.10
2022-10-12T06:17:26.979Z,5.33
2022-10-12T06:19:53.285Z,4.70
2022-10-12T06:22:19.598Z,5.73
2022-10-12T06:24:45.931Z,4.93
2022-10-12T06:27:15.086Z,4.57
2022-10-12T06:29:41.468Z,4.53
2022-10-12T06:32:07.862Z,4.50
2022-10-12T06:34:34.260Z,4.13
2022-10-12T06:37:02.004Z,5.23
2022-10-12T06:39:28.646Z,5.30
2022-10-12T06:41:55.092Z,4.53
2022-10-12T06:44:22.577Z,5.00
2022-10-12T06:46:49.794Z,4.87
2022-10-12T06:49:17.159Z,4.40
2022-10-12T06:51:43.485Z,4.47
2022-10-12T06:54:09.837Z,4.83
2022-10-12T06:56:38.189Z,4.90
2022-10-12T06:59:04.553Z,4.17
2022-10-12T07:01:31.060Z,4.63
2022-10-12T07:04:00.692Z,4.93
2022-10-12T07:06:27.510Z,5.43
2022-10-12T07:08:54.750Z,5.00
2022-10-12T07:11:21.087Z,4.03
2022-10-12T07:13:47.545Z,5.63
2022-10-12T07:16:13.867Z,5.27
2022-10-12T07:18:40.586Z,4.60
2022-10-12T07:21:07.058Z,4.50
2022-10-12T07:23:33.843Z,4.33
2022-10-12T07:26:00.650Z,4.23
2022-10-12T07:28:27.420Z,4.20
2022-10-12T07:30:53.892Z,4.40
2022-10-12T07:33:20.255Z,5.67
2022-10-12T07:36:23.557Z,5.00
2022-10-12T07:38:45.241Z,3.70
2022-10-12T07:41:11.994Z,4.83
2022-10-12T07:43:39.108Z,4.70
2022-10-12T07:46:05.603Z,4.33
2022-10-12T07:48:32.088Z,3.87
2022-10-12T07:51:04.954Z,3.80
2022-10-12T07:53:31.702Z,4.40
2022-10-12T07:56:01.846Z,4.80
2022-10-12T07:58:28.351Z,3.60
2022-10-12T08:00:54.799Z,4.33
2022-10-12T08:03:21.142Z,3.97
2022-10-12T08:05:47.468Z,4.07
2022-10-12T08:08:14.408Z,4.07
2022-10-12T08:10:40.774Z,3.70
2022-10-12T08:13:07.182Z,3.10
2022-10-12T08:15:33.512Z,3.23
2022-10-12T08:17:59.841Z,3.73
2022-10-12T08:20:26.179Z,3.57
2022-10-12T08:22:53.530Z,4.47
2022-10-12T08:25:20.503Z,3.00
2022-10-12T08:27:47.169Z,3.63
2022-10-12T08:30:13.806Z,3.70
2022-10-12T08:32:40.167Z,2.83
2022-10-12T08:35:06.628Z,3.07
2022-10-12T08:37:32.979Z,3.20
2022-10-12T08:40:03.096Z,3.33
2022-10-12T08:42:42.486Z,3.10
2022-10-12T08:45:19.019Z,3.60
2022-10-12T08:47:47.547Z,4.03
2022-10-12T08:50:33.105Z,3.50
2022-10-12T08:53:08.231Z,3.67
2022-10-12T08:55:39.445Z,4.50
2022-10-12T08:58:11.988Z,3.20
2022-10-12T09:00:38.845Z,3.37
2022-10-12T09:03:18.888Z,3.20
2022-10-12T09:05:50.802Z,3.03
2022-10-12T09:08:29.130Z,4.63
2022-10-12T09:11:03.279Z,3.00
2022-10-12T09:13:38.558Z,3.40
2022-10-12T09:16:11.100Z,3.20
2022-10-12T09:18:41.597Z,3.93
2022-10-12T09:21:16.842Z,2.77
2022-10-12T09:23:44.352Z,3.80
2022-10-12T09:26:10.664Z,2.90
2022-10-12T09:28:41.372Z,3.50
2022-10-12T09:31:10.458Z,3.37
2022-10-12T09:33:46.086Z,3.50
2022-10-12T09:36:15.015Z,3.40
2022-10-12T09:38:41.359Z,2.17
2022-10-12T09:41:12.139Z,2.77
2022-10-12T09:43:39.453Z,2.53
2022-10-12T09:46:06.679Z,2.60
2022-10-12T09:48:33.104Z,2.30
2022-10-12T09:51:01.516Z,2.70
2022-10-12T09:53:31.868Z,2.85
2022-10-12T09:56:04.138Z,2.63
2022-10-12T09:58:30.766Z,2.50
2022-10-12T10:01:35.682Z,2.00
2022-10-12T10:04:08.744Z,2.08
2022-10-12T10:06:36.642Z,2.30
2022-10-12T10:09:03.380Z,2.20
2022-10-12T10:11:33.491Z,2.33
2022-10-12T10:14:01.130Z,2.43
2022-10-12T10:16:28.771Z,2.73
2022-10-12T10:19:01.898Z,2.30
2022-10-12T10:21:33.617Z,2.93
2022-10-12T10:24:01.229Z,3.10
2022-10-12T10:26:28.465Z,2.87
2022-10-12T10:29:30.341Z,2.40
2022-10-12T10:32:15.288Z,2.40
2022-10-12T10:34:42.402Z,2.80
2022-10-12T10:37:15.858Z,2.80
2022-10-12T10:39:46.657Z,2.30
2022-10-12T10:42:17.452Z,2.20
2022-10-12T10:44:49.454Z,2.37
2022-10-12T10:47:15.952Z,2.07
2022-10-12T10:49:49.447Z,2.10
2022-10-12T10:52:21.543Z,2.13
2022-10-12T10:54:49.655Z,2.50
2022-10-12T10:57:20.595Z,2.53
2022-10-12T10:59:49.894Z,2.63
2022-10-12T11:02:25.385Z,2.83
2022-10-12T11:04:53.942Z,3.33
2022-10-12T11:07:32.751Z,1.97
2022-10-12T11:10:01.109Z,2.40
2022-10-12T11:12:32.802Z,2.53
2022-10-12T11:15:05.182Z,2.33
2022-10-12T11:17:33.085Z,1.77
2022-10-12T11:20:14.563Z,2.33
2022-10-12T11:23:02.970Z,2.30
2022-10-12T11:25:29.272Z,2.00
2022-10-12T11:27:55.702Z,2.37
2022-10-12T11:30:24.114Z,1.87
2022-10-12T11:32:55.490Z,2.40
2022-10-12T11:35:29.106Z,2.47
2022-10-12T11:37:57.972Z,2.20
2022-10-12T11:43:26.616Z,1.57
2022-10-12T11:45:54.876Z,2.00
2022-10-12T11:48:31.423Z,2.57
2022-10-12T11:51:03.040Z,2.30
2022-10-12T11:53:30.571Z,2.27
2022-10-12T11:56:08.038Z,1.60
2022-10-12T11:58:59.201Z,1.87
2022-10-12T12:01:41.697Z,1.60
2022-10-12T12:04:41.845Z,2.00
2022-10-12T12:07:27.659Z,2.30
2022-10-12T12:09:54.454Z,1.97
2022-10-12T12:12:22.986Z,2.67
2022-10-12T12:14:52.510Z,2.03
2022-10-12T12:17:28.145Z,1.67
2022-10-12T12:19:59.367Z,1.70
2022-10-12T12:22:28.994Z,2.23
2022-10-12T12:25:04.368Z,2.17
2022-10-12T12:27:32.633Z,1.97
2022-10-12T12:30:00.800Z,1.83
2022-10-12T12:32:40.986Z,2.60
2022-10-12T12:35:18.116Z,1.90
2022-10-12T12:37:45.020Z,2.10
2022-10-12T12:40:19.528Z,2.17
2022-10-12T12:42:45.862Z,2.10
2022-10-12T12:45:30.603Z,2.47
2022-10-12T12:47:56.978Z,2.27
2022-10-12T12:50:29.514Z,2.47
2022-10-12T12:53:01.777Z,2.50
2022-10-12T12:55:49.994Z,2.10
2022-10-12T12:58:25.679Z,1.67
2022-10-12T13:00:55.078Z,2.17
2022-10-12T13:03:40.181Z,2.30
2022-10-12T13:06:06.483Z,2.00
2022-10-12T13:08:32.833Z,1.97
2022-10-12T13:11:05.248Z,2.03
2022-10-12T13:13:38.026Z,1.60
2022-10-12T13:16:36.657Z,1.80
2022-10-12T13:19:05.111Z,1.77
2022-10-12T13:21:41.410Z,2.20
2022-10-12T13:24:25.005Z,2.70
2022-10-12T13:26:56.817Z,4.27
2022-10-12T13:29:27.560Z,10.03
2022-10-12T13:31:57.249Z,2.40
2022-10-12T13:34:38.392Z,2.10
2022-10-12T13:37:09.916Z,1.77
2022-10-12T13:39:40.274Z,1.67
2022-10-12T13:42:06.746Z,2.13
2022-10-12T13:44:35.602Z,1.93
2022-10-12T13:47:21.553Z,1.83
2022-10-12T13:49:47.960Z,1.87
2022-10-12T13:52:14.338Z,1.93
2022-10-12T13:54:42.103Z,2.03
2022-10-12T13:57:16.954Z,2.30
2022-10-12T13:59:43.566Z,2.03
2022-10-12T14:02:17.243Z,2.27
2022-10-12T14:04:43.941Z,2.23
2022-10-12T14:07:39.450Z,2.13
2022-10-12T14:10:07.542Z,2.20
2022-10-12T14:12:37.302Z,2.63
2022-10-12T14:15:04.330Z,1.90
2022-10-12T14:17:30.753Z,2.27
2022-10-12T14:20:13.660Z,1.83
2022-10-12T14:22:40.024Z,1.70
2022-10-12T14:25:06.375Z,1.77
2022-10-12T14:27:32.926Z,1.90
2022-10-12T14:30:04.953Z,2.00
2022-10-12T14:32:37.351Z,1.90
2022-10-12T14:35:10.416Z,1.90
2022-10-12T14:37:36.881Z,4.13
2022-10-12T14:40:23.506Z,2.80
2022-10-12T14:43:04.050Z,1.80
2022-10-12T14:45:31.038Z,2.87
2022-10-12T14:47:59.592Z,1.67
2022-10-12T14:50:26.083Z,1.40
2022-10-12T14:52:54.327Z,1.70
2022-10-12T14:55:22.600Z,1.53
2022-10-12T14:57:49.286Z,2.60
2022-10-12T15:00:16.619Z,1.93
2022-10-12T15:02:43.707Z,1.73
2022-10-12T15:05:11.639Z,2.00
2022-10-12T15:07:38.066Z,2.00
2022-10-12T15:10:04.580Z,1.93
2022-10-12T15:12:31.140Z,1.70
2022-10-12T15:14:59.255Z,1.60
2022-10-12T15:17:25.644Z,1.50
2022-10-12T15:19:52.097Z,1.90
2022-10-12T15:22:18.426Z,2.47
2022-10-12T15:24:44.834Z,2.40
2022-10-12T15:27:11.692Z,2.20
2022-10-12T15:29:38.302Z,2.60
2022-10-12T15:32:05.223Z,3.50
2022-10-12T15:34:31.720Z,3.23
2022-10-12T15:36:58.059Z,1.80
2022-10-12T15:39:24.591Z,1.90
2022-10-12T15:41:50.959Z,2.77
2022-10-12T15:44:17.362Z,1.70
2022-10-12T15:46:44.167Z,2.10
2022-10-12T15:49:10.952Z,2.13
2022-10-12T15:51:41.843Z,7.77
2022-10-12T15:54:08.248Z,3.13
2022-10-12T15:56:34.818Z,2.47
2022-10-12T15:59:01.172Z,2.03
2022-10-12T16:01:27.614Z,2.73
2022-10-12T16:03:54.044Z,2.10
2022-10-12T16:06:20.456Z,2.37
2022-10-12T16:08:47.124Z,2.23
2022-10-12T16:11:14.392Z,2.60
2022-10-12T16:13:45.547Z,2.20
2022-10-12T16:16:18.760Z,2.53
2022-10-12T16:18:45.099Z,2.47
2022-10-12T16:21:11.895Z,2.30
2022-10-12T16:23:39.311Z,2.00
2022-10-12T16:26:06.971Z,2.33
2022-10-12T16:28:33.739Z,2.50
2022-10-12T16:31:00.478Z,2.20
2022-10-12T16:33:27.014Z,2.53
2022-10-12T16:35:53.395Z,2.67
2022-10-12T16:38:20.377Z,2.73
2022-10-12T16:40:48.659Z,2.80
2022-10-12T16:43:14.998Z,2.13
2022-10-12T16:45:41.311Z,3.00
2022-10-12T16:48:07.677Z,2.90
2022-10-12T16:50:34.086Z,3.60
2022-10-12T16:53:00.445Z,3.57
2022-10-12T16:55:26.843Z,3.30
2022-10-12T16:57:53.184Z,3.30
2022-10-12T17:00:20.247Z,2.77
2022-10-12T17:02:47.292Z,2.87
2022-10-12T17:05:13.700Z,3.47
2022-10-12T17:07:40.081Z,3.20
2022-10-12T17:10:06.548Z,3.30
2022-10-12T17:12:33.882Z,3.83
2022-10-12T17:15:00.207Z,4.03
2022-10-12T17:17:26.536Z,4.10
2022-10-12T17:19:52.972Z,4.10
2022-10-12T17:22:19.388Z,4.20
2022-10-12T17:24:45.905Z,4.50
2022-10-12T17:27:13.180Z,4.00
2022-10-12T17:29:40.409Z,4.27
2022-10-12T17:32:07.558Z,4.67
2022-10-12T17:34:38.634Z,4.67
2022-10-12T17:37:05.291Z,5.20
2022-10-12T17:39:33.011Z,5.00
2022-10-12T17:41:59.460Z,4.23
2022-10-12T17:44:25.802Z,3.97
2022-10-12T17:46:52.503Z,4.60
2022-10-12T17:49:24.517Z,4.10
2022-10-12T17:51:51.482Z,3.83
2022-10-12T17:54:21.847Z,3.80
2022-10-12T17:56:48.321Z,4.57
2022-10-12T17:59:16.343Z,4.70
2022-10-12T18:01:42.735Z,3.53
2022-10-12T18:04:10.638Z,4.27
2022-10-12T18:06:37.004Z,4.07
2022-10-12T18:09:04.438Z,4.57
2022-10-12T18:11:30.986Z,7.13
2022-10-12T18:13:57.698Z,8.67
2022-10-12T18:16:33.208Z,4.90
2022-10-12T18:19:01.124Z,4.30
2022-10-12T18:21:28.306Z,4.23
2022-10-12T18:23:54.898Z,4.43
2022-10-12T18:26:22.272Z,4.67
2022-10-12T18:28:49.785Z,4.07
2022-10-12T18:31:17.030Z,4.40
2022-10-12T18:33:44.576Z,4.33
2022-10-12T18:36:11.601Z,4.10
2022-10-12T18:38:38.278Z,4.30
2022-10-12T18:41:05.558Z,5.03
2022-10-12T18:43:32.066Z,4.23
2022-10-12T18:45:58.593Z,4.43
2022-10-12T18:48:24.978Z,4.77
2022-10-12T18:50:52.608Z,4.07
2022-10-12T18:53:19.598Z,4.73
2022-10-12T18:55:45.987Z,5.07
2022-10-12T18:58:12.395Z,4.50
2022-10-12T19:00:39.728Z,4.97
2022-10-12T19:03:06.319Z,5.63
2022-10-12T19:05:32.658Z,4.50
2022-10-12T19:07:59.015Z,5.00
2022-10-12T19:10:29.876Z,4.77
2022-10-12T19:12:56.243Z,5.13
2022-10-12T19:15:22.594Z,4.93
2022-10-12T19:17:48.918Z,5.30
2022-10-12T19:20:15.281Z,5.10
2022-10-12T19:22:41.716Z,5.53
2022-10-12T19:25:08.354Z,5.90
2022-10-12T19:27:34.700Z,5.40
2022-10-12T19:30:01.025Z,4.83
2022-10-12T19:32:27.435Z,5.67
2022-10-12T19:34:53.760Z,5.37
2022-10-12T19:37:20.107Z,5.20
2022-10-12T19:39:47.187Z,5.77
2022-10-12T19:42:13.550Z,14.23
2022-10-12T19:44:39.889Z,13.30
2022-10-12T19:47:06.294Z,8.80
2022-10-12T19:49:36.556Z,5.93
2022-10-12T19:52:04.219Z,5.40
2022-10-12T19:54:34.096Z,4.47
2022-10-12T19:57:02.374Z,4.80
2022-10-12T19:59:28.776Z,5.20
2022-10-12T20:01:55.086Z,5.27
2022-10-12T20:04:21.507Z,5.40
2022-10-12T20:06:47.871Z,5.03
2022-10-12T20:09:14.291Z,5.00
2022-10-12T20:11:40.730Z,4.20
2022-10-12T20:14:07.828Z,4.10
2022-10-12T20:16:35.389Z,4.53
2022-10-12T20:19:02.055Z,4.67
2022-10-12T20:21:28.482Z,3.77
2022-10-12T20:23:55.039Z,4.47
2022-10-12T20:26:23.284Z,3.93
2022-10-12T20:28:50.172Z,4.20
2022-10-12T20:31:18.612Z,4.63
2022-10-12T20:33:45.136Z,4.33
2022-10-12T20:36:13.538Z,4.13
2022-10-12T20:38:40.466Z,4.33
2022-10-12T20:41:08.294Z,3.93
2022-10-12T20:43:34.967Z,3.60
2022-10-12T20:46:01.906Z,4.57
2022-10-12T20:48:28.263Z,4.50
2022-10-12T20:50:54.647Z,4.33
2022-10-12T20:53:21.018Z,4.00
2022-10-12T20:55:47.666Z,3.70
2022-10-12T20:58:14.035Z,3.77
2022-10-12T21:00:40.594Z,3.70
2022-10-12T21:03:06.974Z,3.97
2022-10-12T21:05:36.723Z,4.00
2022-10-12T21:08:03.082Z,3.77
2022-10-12T21:10:29.418Z,3.87
2022-10-12T21:12:55.862Z,3.50
2022-10-12T21:15:22.219Z,4.10
2022-10-12T21:17:48.569Z,4.20
2022-10-12T21:20:14.957Z,4.00
2022-10-12T21:22:44.154Z,4.67
2022-10-12T21:25:10.497Z,3.93
2022-10-12T21:27:36.835Z,4.03
2022-10-12T21:30:03.374Z,3.57
2022-10-12T21:32:29.811Z,4.80
2022-10-12T21:34:56.158Z,4.47
2022-10-12T21:37:22.487Z,4.00
2022-10-12T21:39:54.121Z,4.07
2022-10-12T21:42:21.018Z,4.93
2022-10-12T21:44:47.458Z,4.13
2022-10-12T21:47:17.377Z,3.53
2022-10-12T21:49:44.648Z,3.60
2022-10-12T21:52:10.983Z,3.90
2022-10-12T21:54:37.305Z,3.53
2022-10-12T21:57:03.690Z,4.10
2022-10-12T21:59:30.037Z,3.77
2022-10-12T22:01:56.385Z,4.17
2022-10-12T22:04:22.742Z,4.20
2022-10-12T22:06:49.740Z,3.67
2022-10-12T22:09:19.106Z,4.63
2022-10-12T22:11:46.684Z,3.50
2022-10-12T22:14:14.575Z,3.77
2022-10-12T22:16:43.208Z,3.50
2022-10-12T22:19:14.260Z,3.80
2022-10-12T22:21:40.977Z,3.97
2022-10-12T22:24:07.543Z,3.63
2022-10-12T22:26:35.196Z,3.40
2022-10-12T22:29:02.226Z,3.87
2022-10-12T22:31:28.563Z,3.57
2022-10-12T22:33:55.302Z,4.10
2022-10-12T22:36:21.621Z,3.23
2022-10-12T22:38:47.930Z,3.73
2022-10-12T22:41:18.644Z,3.43
2022-10-12T22:43:45.008Z,4.93
2022-10-12T22:46:11.655Z,3.67
2022-10-12T22:48:38.071Z,3.90
2022-10-12T22:51:05.250Z,3.30
2022-10-12T22:53:31.923Z,3.80
2022-10-12T22:56:01.064Z,4.00
2022-10-12T22:58:27.947Z,3.90
2022-10-12T23:01:10.468Z,3.60
2022-10-12T23:03:37.366Z,3.47
2022-10-12T23:06:04.447Z,3.67
2022-10-12T23:08:31.018Z,3.93
2022-10-12T23:11:05.409Z,3.30
2022-10-12T23:13:32.825Z,3.60
2022-10-12T23:16:25.623Z,4.07
2022-10-12T23:18:59.335Z,3.93
2022-10-12T23:21:26.921Z,3.80
2022-10-12T23:23:53.259Z,3.50
2022-10-12T23:26:21.026Z,3.73
2022-10-12T23:28:47.844Z,4.13
2022-10-12T23:31:15.511Z,3.20
2022-10-12T23:33:41.914Z,3.83
2022-10-12T23:36:09.750Z,4.03
2022-10-12T23:38:36.814Z,3.63
2022-10-12T23:41:03.217Z,3.67
2022-10-12T23:43:29.561Z,3.97
2022-10-12T23:45:56.197Z,3.60
2022-10-12T23:48:23.546Z,3.80
2022-10-12T23:50:51.833Z,3.77
2022-10-12T23:53:18.949Z,3.10
2022-10-12T23:55:45.287Z,3.67
2022-10-12T23:58:11.634Z,4.83
